Time;durP1;ratioP1;P1;durP2;ratioP2;P2;SDS_P1;SDS_P2;PMS_P1;PMS_P2;Temp;Humidity;BMP_temperature;BMP_pressure;BME280_temperature;BME280_humidity;BME280_pressure;Samples;Min_cycle;Max_cycle;Signal;HPM_P1;HPM_P2
2022/10/17 00:00:51;;;;;;;5.20;2.42;;;;;;;;;;6152811;23;20297;-71
2022/10/17 00:03:37;;;;;;;9.43;2.20;;;;;;;;;;6146048;23;20441;-72
2022/10/17 00:06:22;;;;;;;8.90;3.00;;;;;;;;;;6145706;23;20009;-71
2022/10/17 00:09:08;;;;;;;10.85;3.35;;;;;;;;;;6145663;23;20006;-70
2022/10/17 00:11:53;;;;;;;7.68;2.42;;;;;;;;;;6145504;23;20002;-71
2022/10/17 00:14:39;;;;;;;8.40;2.40;;;;;;;;;;6145402;23;20063;-71
2022/10/17 00:17:24;;;;;;;9.80;2.40;;;;;;;;;;6145843;23;20051;-71
2022/10/17 00:20:09;;;;;;;9.95;2.13;;;;;;;;;;6145711;23;20005;-69
2022/10/17 00:22:56;;;;;;;11.07;2.72;;;;;;;;;;6149675;23;20018;-80
2022/10/17 00:25:41;;;;;;;6.57;2.22;;;;;;;;;;6159153;22;20400;-80
2022/10/17 00:28:26;;;;;;;19.98;2.85;;;;;;;;;;6151191;23;20013;-81
2022/10/17 00:31:12;;;;;;;8.88;2.75;;;;;;;;;;6147397;23;20065;-81
2022/10/17 00:33:57;;;;;;;6.50;2.30;;;;;;;;;;6150463;23;20092;-81
2022/10/17 00:36:42;;;;;;;9.35;2.33;;;;;;;;;;6144718;23;20009;-80
2022/10/17 00:39:27;;;;;;;8.75;2.20;;;;;;;;;;6145598;23;20039;-69
2022/10/17 00:42:12;;;;;;;3.78;1.77;;;;;;;;;;6145109;23;20014;-71
2022/10/17 00:45:04;;;;;;;4.32;2.10;;;;;;;;;;6122322;23;20461;-71
2022/10/17 00:47:52;;;;;;;8.70;2.67;;;;;;;;;;6146619;23;20045;-70
2022/10/17 00:50:40;;;;;;;6.38;2.35;;;;;;;;;;6146350;23;20417;-69
2022/10/17 00:53:25;;;;;;;6.95;2.00;;;;;;;;;;6146017;23;20017;-70
2022/10/17 00:56:10;;;;;;;6.80;2.40;;;;;;;;;;6146521;23;20005;-68
2022/10/17 00:58:55;;;;;;;6.93;2.05;;;;;;;;;;6147821;23;20006;-71
2022/10/17 01:01:42;;;;;;;5.55;2.20;;;;;;;;;;6147553;23;20072;-79
2022/10/17 01:04:27;;;;;;;7.78;2.30;;;;;;;;;;6153623;23;20005;-79
2022/10/17 01:07:12;;;;;;;4.95;2.13;;;;;;;;;;6146820;23;20016;-81
2022/10/17 01:09:58;;;;;;;13.82;2.33;;;;;;;;;;6147535;23;20001;-79
2022/10/17 01:12:46;;;;;;;8.65;2.50;;;;;;;;;;6147392;22;20080;-79
2022/10/17 01:15:32;;;;;;;6.68;2.42;;;;;;;;;;6147037;23;20071;-80
2022/10/17 01:18:17;;;;;;;7.28;2.35;;;;;;;;;;6126225;23;20112;-69
2022/10/17 01:21:20;;;;;;;9.95;3.15;;;;;;;;;;6147681;23;20001;-69
2022/10/17 01:24:08;;;;;;;5.55;2.28;;;;;;;;;;6145864;23;20025;-69
2022/10/17 01:27:03;;;;;;;8.65;2.65;;;;;;;;;;6146940;23;20005;-69
2022/10/17 01:29:52;;;;;;;11.73;2.72;;;;;;;;;;6145900;23;20040;-70
2022/10/17 01:32:46;;;;;;;7.85;2.83;;;;;;;;;;6146224;23;20010;-70
2022/10/17 01:35:39;;;;;;;10.00;2.83;;;;;;;;;;6129114;23;20017;-79
2022/10/17 01:38:29;;;;;;;7.57;2.80;;;;;;;;;;6150205;23;20037;-80
2022/10/17 01:41:34;;;;;;;9.20;2.70;;;;;;;;;;6147089;22;20460;-80
2022/10/17 01:44:22;;;;;;;9.57;2.60;;;;;;;;;;6147189;23;20508;-81
2022/10/17 01:47:09;;;;;;;8.35;2.78;;;;;;;;;;6145210;23;20020;-80
2022/10/17 01:49:57;;;;;;;6.22;2.10;;;;;;;;;;6146470;23;20065;-79
2022/10/17 01:52:45;;;;;;;7.20;2.45;;;;;;;;;;6147226;23;20001;-79
2022/10/17 01:55:38;;;;;;;4.90;2.40;;;;;;;;;;6146223;23;20020;-69
2022/10/17 01:58:28;;;;;;;7.68;2.55;;;;;;;;;;6146836;23;20310;-70
2022/10/17 02:01:14;;;;;;;4.32;2.08;;;;;;;;;;6147322;23;20010;-69
2022/10/17 02:04:00;;;;;;;8.02;2.28;;;;;;;;;;6147158;23;20028;-69
2022/10/17 02:06:45;;;;;;;10.07;2.67;;;;;;;;;;6147444;23;20006;-69
2022/10/17 02:09:31;;;;;;;4.07;2.38;;;;;;;;;;6153121;23;20357;-68
2022/10/17 02:12:35;;;;;;;9.07;2.95;;;;;;;;;;6147319;23;20005;-79
2022/10/17 02:15:20;;;;;;;22.48;4.57;;;;;;;;;;6146970;23;20019;-70
2022/10/17 02:18:14;;;;;;;6.18;2.50;;;;;;;;;;6147218;23;20055;-70
2022/10/17 02:21:02;;;;;;;9.68;2.38;;;;;;;;;;6147028;23;20009;-72
2022/10/17 02:23:54;;;;;;;11.48;3.05;;;;;;;;;;6126783;23;20041;-70
2022/10/17 02:26:44;;;;;;;5.78;2.50;;;;;;;;;;6147086;23;20037;-70
2022/10/17 02:29:32;;;;;;;11.70;2.70;;;;;;;;;;6147092;23;20001;-70
2022/10/17 02:32:23;;;;;;;9.10;2.20;;;;;;;;;;6146976;23;20058;-70
2022/10/17 02:35:10;;;;;;;10.75;2.03;;;;;;;;;;6146384;23;20156;-70
2022/10/17 02:37:55;;;;;;;9.70;2.17;;;;;;;;;;6146519;23;20009;-71
2022/10/17 02:40:41;;;;;;;3.38;2.30;;;;;;;;;;6153251;23;20006;-70
2022/10/17 02:43:27;;;;;;;5.10;2.40;;;;;;;;;;6146691;23;20020;-70
2022/10/17 02:46:19;;;;;;;5.22;2.20;;;;;;;;;;6146265;23;20010;-70
2022/10/17 02:49:09;;;;;;;8.55;2.15;;;;;;;;;;6146442;23;20043;-70
2022/10/17 02:51:54;;;;;;;;;;;;;;;;;;6146273;23;20010;-71
2022/10/17 02:54:41;;;;;;;6.72;2.30;;;;;;;;;;6167133;23;19917;-71
2022/10/17 02:57:32;;;;;;;8.93;2.42;;;;;;;;;;6146158;22;20091;-71
2022/10/17 03:00:18;;;;;;;8.75;3.08;;;;;;;;;;6145799;23;20333;-71
2022/10/17 03:03:17;;;;;;;7.72;2.28;;;;;;;;;;6146633;23;20326;-71
2022/10/17 03:06:02;;;;;;;9.95;2.30;;;;;;;;;;6146118;23;20006;-70
2022/10/17 03:08:47;;;;;;;3.55;1.85;;;;;;;;;;6145942;23;20005;-71
2022/10/17 03:11:32;;;;;;;9.32;2.40;;;;;;;;;;6148202;23;19997;-73
2022/10/17 03:14:18;;;;;;;6.55;2.22;;;;;;;;;;6149396;23;20092;-75
2022/10/17 03:17:03;;;;;;;6.57;2.00;;;;;;;;;;6145616;23;20013;-73
2022/10/17 03:19:48;;;;;;;4.45;1.92;;;;;;;;;;6146138;23;20417;-72
2022/10/17 03:22:33;;;;;;;7.72;2.38;;;;;;;;;;6146065;23;20006;-71
2022/10/17 03:25:19;;;;;;;6.45;1.98;;;;;;;;;;6146369;23;20427;-70
2022/10/17 03:28:04;;;;;;;9.32;2.35;;;;;;;;;;6145925;23;20028;-79
2022/10/17 03:30:49;;;;;;;6.78;2.10;;;;;;;;;;6146098;23;20009;-79
2022/10/17 03:33:35;;;;;;;7.07;2.40;;;;;;;;;;6145819;23;20009;-78
2022/10/17 03:36:20;;;;;;;5.85;2.25;;;;;;;;;;6146094;23;20017;-78
2022/10/17 03:39:05;;;;;;;4.55;2.20;;;;;;;;;;6145894;23;20009;-78
2022/10/17 03:41:51;;;;;;;4.50;2.38;;;;;;;;;;6146345;23;20006;-69
2022/10/17 03:44:36;;;;;;;4.57;2.03;;;;;;;;;;6152114;23;20001;-69
2022/10/17 03:47:21;;;;;;;7.18;2.30;;;;;;;;;;6145816;23;20006;-70
2022/10/17 03:50:06;;;;;;;5.25;2.58;;;;;;;;;;6145688;23;20360;-70
2022/10/17 03:52:52;;;;;;;6.43;2.40;;;;;;;;;;6145807;23;20059;-71
2022/10/17 03:55:37;;;;;;;6.85;2.33;;;;;;;;;;6145857;23;20017;-72
2022/10/17 03:58:22;;;;;;;8.48;2.38;;;;;;;;;;6145588;23;20005;-71
2022/10/17 04:01:08;;;;;;;4.15;2.33;;;;;;;;;;6148711;23;20031;-68
2022/10/17 04:03:55;;;;;;;7.85;2.53;;;;;;;;;;6154816;23;20006;-70
2022/10/17 04:06:40;;;;;;;13.23;2.67;;;;;;;;;;6145972;23;20002;-70
2022/10/17 04:09:25;;;;;;;5.75;2.17;;;;;;;;;;6145680;23;20001;-70
2022/10/17 04:12:11;;;;;;;9.35;2.38;;;;;;;;;;6145884;23;20438;-71
2022/10/17 04:14:56;;;;;;;9.82;2.72;;;;;;;;;;6145377;23;20092;-71
2022/10/17 04:17:41;;;;;;;7.15;2.25;;;;;;;;;;6151471;23;20368;-70
2022/10/17 04:20:26;;;;;;;8.55;2.17;;;;;;;;;;6145255;23;20078;-70
2022/10/17 04:23:11;;;;;;;11.40;2.72;;;;;;;;;;6145649;23;20037;-68
2022/10/17 04:25:58;;;;;;;16.50;2.60;;;;;;;;;;6145676;23;20468;-70
2022/10/17 04:28:43;;;;;;;5.53;2.30;;;;;;;;;;6145742;23;20020;-70
2022/10/17 04:31:28;;;;;;;5.88;2.25;;;;;;;;;;6145560;23;20100;-69
2022/10/17 04:34:14;;;;;;;12.48;2.78;;;;;;;;;;6145370;23;20073;-69
2022/10/17 04:36:59;;;;;;;12.68;3.45;;;;;;;;;;6145443;23;20063;-71
2022/10/17 04:39:44;;;;;;;8.85;2.50;;;;;;;;;;6146031;23;20006;-70
2022/10/17 04:42:29;;;;;;;9.60;2.63;;;;;;;;;;6145663;23;20018;-70
2022/10/17 04:45:14;;;;;;;10.68;2.10;;;;;;;;;;6145639;23;20012;-70
2022/10/17 04:48:00;;;;;;;9.45;3.03;;;;;;;;;;6150286;23;20285;-71
2022/10/17 04:50:52;;;;;;;5.15;2.28;;;;;;;;;;6148140;23;20317;-70
2022/10/17 04:53:38;;;;;;;6.75;2.60;;;;;;;;;;6145975;23;20013;-71
2022/10/17 04:56:23;;;;;;;7.63;2.45;;;;;;;;;;6146213;23;20017;-66
2022/10/17 04:59:08;;;;;;;5.60;2.47;;;;;;;;;;6146011;23;20006;-69
2022/10/17 05:01:54;;;;;;;8.43;2.92;;;;;;;;;;6145743;23;20002;-69
2022/10/17 05:04:39;;;;;;;6.38;2.22;;;;;;;;;;6145939;23;20437;-69
2022/10/17 05:07:24;;;;;;;9.20;2.47;;;;;;;;;;6145612;23;20012;-69
2022/10/17 05:10:09;;;;;;;13.25;2.58;;;;;;;;;;6146606;23;20005;-68
2022/10/17 05:12:55;;;;;;;7.30;2.83;;;;;;;;;;6145918;23;20073;-69
2022/10/17 05:15:40;;;;;;;9.25;2.97;;;;;;;;;;6146598;23;20016;-68
2022/10/17 05:18:25;;;;;;;11.07;2.70;;;;;;;;;;6145936;23;20006;-68
2022/10/17 05:21:11;;;;;;;21.55;2.90;;;;;;;;;;6153308;23;20020;-67
2022/10/17 05:23:56;;;;;;;8.48;2.90;;;;;;;;;;6146383;23;20068;-67
2022/10/17 05:26:41;;;;;;;8.00;2.92;;;;;;;;;;6145866;23;20092;-66
2022/10/17 05:29:27;;;;;;;14.93;3.20;;;;;;;;;;6145391;23;20290;-66
2022/10/17 05:32:13;;;;;;;6.38;2.67;;;;;;;;;;6147044;23;20005;-67
2022/10/17 05:34:58;;;;;;;15.70;2.38;;;;;;;;;;6147860;23;20337;-78
2022/10/17 05:37:43;;;;;;;11.25;2.53;;;;;;;;;;6147445;23;20005;-65
2022/10/17 05:40:29;;;;;;;2.72;1.80;;;;;;;;;;6148090;23;20025;-66
2022/10/17 05:43:14;;;;;;;11.32;2.83;;;;;;;;;;6147877;23;20052;-66
2022/10/17 05:46:02;;;;;;;13.93;2.90;;;;;;;;;;6147492;22;19997;-66
2022/10/17 05:48:47;;;;;;;7.07;2.13;;;;;;;;;;6147763;23;20037;-66
2022/10/17 05:51:32;;;;;;;10.65;3.00;;;;;;;;;;6149715;23;20015;-67
2022/10/17 05:54:18;;;;;;;6.70;2.28;;;;;;;;;;6150963;23;20009;-71
2022/10/17 05:57:03;;;;;;;7.10;2.60;;;;;;;;;;6147557;23;20009;-70
2022/10/17 05:59:48;;;;;;;7.95;3.00;;;;;;;;;;6146860;23;20005;-70
2022/10/17 06:02:33;;;;;;;5.97;2.65;;;;;;;;;;6147334;23;20005;-70
2022/10/17 06:05:19;;;;;;;7.53;2.78;;;;;;;;;;6146818;23;20449;-70
2022/10/17 06:08:04;;;;;;;6.38;2.45;;;;;;;;;;6146852;23;20009;-70
2022/10/17 06:10:50;;;;;;;8.45;3.60;;;;;;;;;;6146994;23;20092;-68
2022/10/17 06:13:35;;;;;;;9.07;3.10;;;;;;;;;;6146761;23;20036;-71
2022/10/17 06:16:20;;;;;;;9.23;2.58;;;;;;;;;;6147190;23;20013;-71
2022/10/17 06:19:06;;;;;;;8.35;2.92;;;;;;;;;;6146707;23;20440;-71
2022/10/17 06:21:51;;;;;;;10.45;2.88;;;;;;;;;;6146776;23;20009;-71
2022/10/17 06:24:36;;;;;;;7.15;2.67;;;;;;;;;;6153248;23;20215;-70
2022/10/17 06:27:21;;;;;;;17.67;3.03;;;;;;;;;;6146655;23;20012;-70
2022/10/17 06:30:07;;;;;;;8.13;3.10;;;;;;;;;;6146455;23;20012;-80
2022/10/17 06:32:52;;;;;;;5.50;2.30;;;;;;;;;;6146805;23;20080;-71
2022/10/17 06:35:37;;;;;;;15.25;3.63;;;;;;;;;;6146723;23;20047;-70
2022/10/17 06:38:23;;;;;;;5.82;2.63;;;;;;;;;;6146779;23;20306;-71
2022/10/17 06:41:09;;;;;;;13.90;3.45;;;;;;;;;;6146338;23;20464;-70
2022/10/17 06:43:54;;;;;;;5.68;2.70;;;;;;;;;;6146356;23;20382;-70
2022/10/17 06:46:39;;;;;;;9.63;2.65;;;;;;;;;;6146575;23;20049;-67
2022/10/17 06:49:25;;;;;;;8.88;2.80;;;;;;;;;;6147010;23;20002;-80
2022/10/17 06:52:10;;;;;;;9.93;3.67;;;;;;;;;;6145983;23;20009;-80
2022/10/17 06:54:56;;;;;;;6.13;3.05;;;;;;;;;;6126574;23;20013;-81
2022/10/17 06:57:41;;;;;;;8.90;3.45;;;;;;;;;;6153250;23;20083;-81
2022/10/17 07:00:26;;;;;;;6.38;3.17;;;;;;;;;;6146245;23;20040;-81
2022/10/17 07:03:11;;;;;;;7.70;2.97;;;;;;;;;;6145890;23;20006;-79
2022/10/17 07:05:57;;;;;;;6.13;3.17;;;;;;;;;;6146482;23;20425;-72
2022/10/17 07:08:43;;;;;;;7.93;2.58;;;;;;;;;;6146516;23;20084;-78
2022/10/17 07:11:28;;;;;;;9.70;3.13;;;;;;;;;;6146532;23;20005;-78
2022/10/17 07:14:13;;;;;;;7.38;3.22;;;;;;;;;;6146583;23;20052;-79
2022/10/17 07:16:59;;;;;;;11.00;3.03;;;;;;;;;;6146499;23;20333;-78
2022/10/17 07:19:44;;;;;;;7.18;3.53;;;;;;;;;;6146641;23;20014;-78
2022/10/17 07:22:29;;;;;;;9.85;2.78;;;;;;;;;;6146178;23;19998;-78
2022/10/17 07:25:15;;;;;;;13.95;3.95;;;;;;;;;;6145931;23;20009;-69
2022/10/17 07:28:01;;;;;;;9.00;3.00;;;;;;;;;;6150347;23;20036;-71
2022/10/17 07:30:46;;;;;;;8.60;3.20;;;;;;;;;;6127421;23;20524;-71
2022/10/17 07:33:31;;;;;;;9.75;3.55;;;;;;;;;;6124774;23;20486;-70
2022/10/17 07:36:17;;;;;;;8.90;3.75;;;;;;;;;;6145936;23;20465;-70
2022/10/17 07:39:02;;;;;;;13.98;3.67;;;;;;;;;;6146310;23;20096;-70
2022/10/17 07:41:50;;;;;;;6.43;2.88;;;;;;;;;;6146556;23;20283;-72
2022/10/17 07:44:35;;;;;;;10.77;3.25;;;;;;;;;;6146302;23;20016;-79
2022/10/17 07:47:21;;;;;;;11.30;3.20;;;;;;;;;;6146620;23;20436;-79
2022/10/17 07:50:06;;;;;;;10.93;3.15;;;;;;;;;;6146697;23;20429;-79
2022/10/17 07:52:52;;;;;;;8.40;3.33;;;;;;;;;;6146207;23;20001;-79
2022/10/17 07:55:37;;;;;;;6.15;2.47;;;;;;;;;;6146297;23;20036;-79
2022/10/17 07:58:23;;;;;;;6.70;3.17;;;;;;;;;;6145890;23;20425;-80
2022/10/17 08:01:13;;;;;;;8.00;2.80;;;;;;;;;;6154179;23;20058;-69
2022/10/17 08:03:58;;;;;;;6.40;2.97;;;;;;;;;;6146601;23;20041;-80
2022/10/17 08:06:43;;;;;;;6.65;3.10;;;;;;;;;;6146439;23;20124;-81
2022/10/17 08:09:28;;;;;;;10.93;2.90;;;;;;;;;;6145315;23;20010;-82
2022/10/17 08:12:14;;;;;;;7.47;2.78;;;;;;;;;;6146198;23;20007;-80
2022/10/17 08:15:00;;;;;;;6.15;2.28;;;;;;;;;;6144813;23;20473;-81
2022/10/17 08:17:45;;;;;;;7.13;2.78;;;;;;;;;;6146100;23;20512;-81
2022/10/17 08:20:30;;;;;;;12.18;2.88;;;;;;;;;;6146375;23;20010;-80
2022/10/17 08:23:15;;;;;;;8.60;2.70;;;;;;;;;;6146140;23;20002;-69
2022/10/17 08:26:02;;;;;;;8.00;3.08;;;;;;;;;;6146862;23;20002;-69
2022/10/17 08:28:47;;;;;;;8.10;2.63;;;;;;;;;;6142311;23;20010;-70
2022/10/17 08:31:33;;;;;;;8.48;1.80;;;;;;;;;;6145546;23;20001;-69
2022/10/17 08:34:18;;;;;;;15.02;2.88;;;;;;;;;;6149994;23;20009;-71
2022/10/17 08:37:03;;;;;;;8.40;3.30;;;;;;;;;;6142126;23;20085;-83
2022/10/17 08:39:48;;;;;;;5.32;2.38;;;;;;;;;;6146280;23;20028;-70
2022/10/17 08:42:43;;;;;;;5.90;2.67;;;;;;;;;;6146411;23;20047;-69
2022/10/17 08:45:44;;;;;;;5.43;2.55;;;;;;;;;;6146079;23;20055;-71
2022/10/17 08:48:32;;;;;;;13.93;3.35;;;;;;;;;;6125872;23;20008;-70
2022/10/17 08:51:20;;;;;;;12.13;4.07;;;;;;;;;;6146014;23;20043;-70
2022/10/17 08:54:13;;;;;;;6.75;2.55;;;;;;;;;;6146036;22;20052;-71
2022/10/17 08:56:58;;;;;;;7.75;2.17;;;;;;;;;;6149860;22;20516;-81
2022/10/17 08:59:44;;;;;;;18.63;2.85;;;;;;;;;;6152102;23;20006;-80
2022/10/17 09:02:41;;;;;;;9.20;2.63;;;;;;;;;;6147752;23;20006;-80
2022/10/17 09:05:30;;;;;;;6.82;2.85;;;;;;;;;;6157110;23;20014;-80
2022/10/17 09:08:15;;;;;;;;;;;;;;;;;;6149411;23;20005;-81
2022/10/17 09:11:13;;;;;;;8.32;2.72;;;;;;;;;;6169071;23;19908;-80
2022/10/17 09:14:16;;;;;;;10.40;2.20;;;;;;;;;;6148090;23;20009;-70
2022/10/17 09:17:11;;;;;;;13.32;3.40;;;;;;;;;;6127487;23;20005;-82
2022/10/17 09:19:59;;;;;;;15.57;2.53;;;;;;;;;;6148280;22;20469;-82
2022/10/17 09:22:51;;;;;;;11.15;2.53;;;;;;;;;;6147433;23;20274;-81
2022/10/17 09:25:41;;;;;;;18.83;2.30;;;;;;;;;;6148352;23;20214;-83
2022/10/17 09:28:29;;;;;;;9.90;2.67;;;;;;;;;;6148054;23;20006;-83
2022/10/17 09:31:20;;;;;;;14.73;3.33;;;;;;;;;;6147949;22;20016;-83
2022/10/17 09:34:09;;;;;;;9.80;2.38;;;;;;;;;;6147937;22;20010;-71
2022/10/17 09:36:56;;;;;;;7.10;2.40;;;;;;;;;;6154580;23;20309;-69
2022/10/17 09:39:42;;;;;;;8.20;1.90;;;;;;;;;;6146218;23;20017;-70
2022/10/17 09:42:28;;;;;;;11.38;2.58;;;;;;;;;;6123292;23;20211;-71
2022/10/17 09:45:18;;;;;;;12.63;2.42;;;;;;;;;;6144337;23;20006;-69
2022/10/17 09:48:10;;;;;;;10.52;2.17;;;;;;;;;;6143718;23;20015;-73
2022/10/17 09:50:55;;;;;;;9.63;2.72;;;;;;;;;;6144764;23;20005;-69
2022/10/17 09:53:51;;;;;;;9.98;2.47;;;;;;;;;;6147235;23;20001;-72
2022/10/17 09:56:55;;;;;;;10.35;2.55;;;;;;;;;;6146951;23;20213;-71
2022/10/17 09:59:43;;;;;;;9.68;2.70;;;;;;;;;;6147201;23;20376;-72
2022/10/17 10:02:29;;;;;;;18.25;2.10;;;;;;;;;;6146130;23;20318;-70
2022/10/17 10:05:16;;;;;;;7.07;2.15;;;;;;;;;;6146580;23;20110;-71
2022/10/17 10:08:03;;;;;;;11.30;1.95;;;;;;;;;;6150927;23;20001;-70
2022/10/17 10:10:56;;;;;;;6.30;1.85;;;;;;;;;;6150034;23;20009;-71
2022/10/17 10:13:41;;;;;;;23.33;2.78;;;;;;;;;;6147081;22;20005;-72
2022/10/17 10:16:31;;;;;;;14.68;2.40;;;;;;;;;;6147581;23;20014;-71
2022/10/17 10:19:19;;;;;;;12.65;2.85;;;;;;;;;;6146341;23;20009;-72
2022/10/17 10:22:16;;;;;;;14.50;2.17;;;;;;;;;;6147800;23;20009;-71
2022/10/17 10:25:06;;;;;;;11.18;2.75;;;;;;;;;;6147097;23;20012;-71
2022/10/17 10:27:51;;;;;;;17.00;2.50;;;;;;;;;;6147166;23;20013;-73
2022/10/17 10:30:37;;;;;;;17.25;2.53;;;;;;;;;;6146963;23;20002;-65
2022/10/17 10:33:24;;;;;;;5.40;1.73;;;;;;;;;;6126734;23;20306;-66
2022/10/17 10:36:09;;;;;;;7.05;2.25;;;;;;;;;;6146555;23;20002;-66
2022/10/17 10:38:56;;;;;;;10.85;3.30;;;;;;;;;;6146711;23;20005;-65
2022/10/17 10:41:46;;;;;;;4.47;2.22;;;;;;;;;;6154036;23;20318;-67
2022/10/17 10:44:32;;;;;;;14.38;3.13;;;;;;;;;;6146622;23;20010;-66
2022/10/17 10:47:17;;;;;;;5.97;1.83;;;;;;;;;;6147327;23;20012;-81
2022/10/17 10:50:14;;;;;;;8.98;2.50;;;;;;;;;;6146585;23;20005;-69
2022/10/17 10:53:20;;;;;;;7.32;1.73;;;;;;;;;;6144179;23;20044;-69
2022/10/17 10:56:24;;;;;;;8.02;2.22;;;;;;;;;;6146040;22;20013;-70
2022/10/17 10:59:19;;;;;;;8.25;2.00;;;;;;;;;;6146794;23;20348;-71
2022/10/17 11:02:23;;;;;;;11.43;3.03;;;;;;;;;;6147491;23;20033;-69
2022/10/17 11:05:26;;;;;;;11.73;2.25;;;;;;;;;;6145136;23;20005;-70
2022/10/17 11:08:30;;;;;;;12.13;2.35;;;;;;;;;;6146689;23;20016;-71
2022/10/17 11:11:37;;;;;;;10.77;2.30;;;;;;;;;;6146137;23;20336;-70
2022/10/17 11:14:41;;;;;;;7.20;2.42;;;;;;;;;;6151475;23;20075;-68
2022/10/17 11:17:42;;;;;;;8.40;2.03;;;;;;;;;;6147064;23;20467;-70
2022/10/17 11:20:27;;;;;;;10.27;2.50;;;;;;;;;;6143338;23;20013;-71
2022/10/17 11:23:18;;;;;;;9.15;2.55;;;;;;;;;;6144502;23;20002;-70
2022/10/17 11:26:07;;;;;;;11.77;2.40;;;;;;;;;;6126169;23;20455;-83
2022/10/17 11:28:53;;;;;;;9.98;2.08;;;;;;;;;;6126242;23;20088;-81
2022/10/17 11:31:41;;;;;;;7.38;1.90;;;;;;;;;;6146806;22;20065;-81
2022/10/17 11:34:29;;;;;;;7.90;1.73;;;;;;;;;;6146816;23;20025;-82
2022/10/17 11:37:17;;;;;;;3.63;1.50;;;;;;;;;;6147222;23;20001;-81
2022/10/17 11:40:14;;;;;;;9.18;1.60;;;;;;;;;;6147795;23;20014;-81
2022/10/17 11:43:01;;;;;;;5.70;1.80;;;;;;;;;;6146654;23;20376;-71
2022/10/17 11:45:49;;;;;;;6.30;1.67;;;;;;;;;;6152433;22;20459;-70
2022/10/17 11:48:54;;;;;;;3.97;1.75;;;;;;;;;;6146452;22;20019;-70
2022/10/17 11:51:45;;;;;;;4.40;2.35;;;;;;;;;;6146528;23;20368;-72
2022/10/17 11:54:36;;;;;;;5.53;1.65;;;;;;;;;;6146365;23;20036;-72
2022/10/17 11:57:21;;;;;;;2.35;1.50;;;;;;;;;;6146399;23;20059;-72
2022/10/17 12:00:16;;;;;;;5.80;1.80;;;;;;;;;;6147658;23;20012;-86
2022/10/17 12:03:01;;;;;;;5.30;2.10;;;;;;;;;;6147909;23;20006;-84
2022/10/17 12:05:56;;;;;;;15.52;2.42;;;;;;;;;;6150765;23;20010;-82
2022/10/17 12:08:50;;;;;;;5.55;2.08;;;;;;;;;;6151270;23;20001;-84
2022/10/17 12:11:41;;;;;;;7.15;2.15;;;;;;;;;;6155579;23;20005;-85
2022/10/17 12:14:37;;;;;;;6.95;1.70;;;;;;;;;;6151520;23;20014;-87
2022/10/17 12:17:38;;;;;;;5.53;1.60;;;;;;;;;;6156302;23;20013;-82
2022/10/17 12:20:26;;;;;;;3.92;1.58;;;;;;;;;;6147829;22;20005;-69
2022/10/17 12:23:11;;;;;;;7.45;1.60;;;;;;;;;;6146011;23;20037;-70
2022/10/17 12:25:59;;;;;;;9.85;1.70;;;;;;;;;;6145198;23;20081;-68
2022/10/17 12:28:46;;;;;;;6.10;1.63;;;;;;;;;;6145661;22;20008;-69
2022/10/17 12:31:31;;;;;;;4.95;1.80;;;;;;;;;;6145955;23;20240;-69
2022/10/17 12:34:19;;;;;;;9.07;1.92;;;;;;;;;;6145834;23;20010;-72
2022/10/17 12:37:09;;;;;;;5.78;1.95;;;;;;;;;;6145204;23;20012;-68
2022/10/17 12:39:54;;;;;;;7.82;1.85;;;;;;;;;;6145607;23;20012;-72
2022/10/17 12:42:47;;;;;;;4.85;1.38;;;;;;;;;;6147557;23;20009;-71
2022/10/17 12:45:45;;;;;;;11.52;2.13;;;;;;;;;;6147817;22;20009;-72
2022/10/17 12:48:37;;;;;;;5.70;1.80;;;;;;;;;;6152702;23;20006;-72
2022/10/17 12:51:23;;;;;;;7.30;1.70;;;;;;;;;;6148369;23;20085;-71
2022/10/17 12:54:09;;;;;;;13.60;2.28;;;;;;;;;;6147289;23;20463;-66
2022/10/17 12:56:54;;;;;;;2.80;1.67;;;;;;;;;;6148363;23;20266;-79
2022/10/17 12:59:42;;;;;;;4.40;1.75;;;;;;;;;;6147956;23;20023;-78
2022/10/17 13:02:28;;;;;;;7.68;2.00;;;;;;;;;;6147638;23;20325;-79
2022/10/17 13:05:23;;;;;;;3.47;1.77;;;;;;;;;;6147976;22;20002;-78
2022/10/17 13:08:15;;;;;;;10.25;2.80;;;;;;;;;;6148105;23;20325;-79
2022/10/17 13:11:00;;;;;;;7.10;2.60;;;;;;;;;;6147657;23;20341;-78
2022/10/17 13:13:47;;;;;;;8.05;2.17;;;;;;;;;;6147696;23;20016;-69
2022/10/17 13:16:34;;;;;;;6.38;2.20;;;;;;;;;;6147755;23;20017;-66
2022/10/17 13:19:24;;;;;;;9.75;1.95;;;;;;;;;;6148323;23;20005;-67
2022/10/17 13:22:17;;;;;;;8.05;2.28;;;;;;;;;;6152510;23;20014;-67
2022/10/17 13:25:14;;;;;;;4.53;2.10;;;;;;;;;;6147782;23;20434;-67
2022/10/17 13:28:03;;;;;;;7.38;2.15;;;;;;;;;;6147659;23;20070;-66
2022/10/17 13:30:49;;;;;;;9.90;3.75;;;;;;;;;;6147679;23;20295;-66
2022/10/17 13:33:37;;;;;;;7.60;2.78;;;;;;;;;;6147657;23;20005;-78
2022/10/17 13:36:23;;;;;;;3.63;2.15;;;;;;;;;;6147574;23;20085;-68
2022/10/17 13:39:12;;;;;;;5.05;2.22;;;;;;;;;;6147486;23;20078;-69
2022/10/17 13:41:57;;;;;;;6.75;2.33;;;;;;;;;;6147543;23;20067;-71
2022/10/17 13:44:42;;;;;;;3.83;2.20;;;;;;;;;;6147377;23;20291;-68
2022/10/17 13:47:29;;;;;;;3.10;2.00;;;;;;;;;;6147206;23;20084;-68
2022/10/17 13:50:18;;;;;;;6.18;2.53;;;;;;;;;;6147630;23;20453;-69
2022/10/17 13:53:14;;;;;;;12.02;2.75;;;;;;;;;;6154654;23;19994;-67
2022/10/17 13:56:00;;;;;;;9.00;2.63;;;;;;;;;;6147553;22;20053;-66
2022/10/17 13:58:46;;;;;;;10.13;2.17;;;;;;;;;;6147408;23;20005;-67
2022/10/17 14:01:32;;;;;;;7.07;2.35;;;;;;;;;;6147204;23;20010;-70
2022/10/17 14:04:17;;;;;;;6.50;2.30;;;;;;;;;;6147702;23;20017;-68
2022/10/17 14:07:02;;;;;;;10.38;2.38;;;;;;;;;;6147110;23;20513;-67
2022/10/17 14:09:47;;;;;;;4.03;2.00;;;;;;;;;;6147337;23;20025;-66
2022/10/17 14:12:33;;;;;;;7.30;2.50;;;;;;;;;;6147221;23;19998;-72
2022/10/17 14:15:20;;;;;;;7.40;1.90;;;;;;;;;;6147032;23;20020;-72
2022/10/17 14:18:07;;;;;;;5.13;1.60;;;;;;;;;;6147242;23;20012;-74
2022/10/17 14:20:52;;;;;;;6.45;1.88;;;;;;;;;;6147220;23;20041;-73
2022/10/17 14:23:42;;;;;;;5.95;2.13;;;;;;;;;;6148423;23;20079;-73
2022/10/17 14:26:27;;;;;;;7.30;2.45;;;;;;;;;;6150884;23;20456;-72
2022/10/17 14:29:30;;;;;;;10.85;2.58;;;;;;;;;;6147396;23;20009;-71
2022/10/17 14:32:16;;;;;;;10.20;2.55;;;;;;;;;;6147070;23;20158;-72
2022/10/17 14:35:04;;;;;;;9.65;2.40;;;;;;;;;;6146997;23;20009;-72
2022/10/17 14:37:50;;;;;;;6.43;1.90;;;;;;;;;;6146829;23;20005;-71
2022/10/17 14:40:35;;;;;;;4.43;1.73;;;;;;;;;;6146989;23;20005;-71
2022/10/17 14:43:22;;;;;;;6.45;2.15;;;;;;;;;;6146405;23;20010;-71
2022/10/17 14:46:13;;;;;;;10.32;2.92;;;;;;;;;;6147042;23;20002;-78
2022/10/17 14:49:06;;;;;;;7.95;2.08;;;;;;;;;;6147064;23;20002;-79
2022/10/17 14:52:09;;;;;;;12.98;3.53;;;;;;;;;;6147520;23;20072;-79
2022/10/17 14:54:56;;;;;;;13.32;2.88;;;;;;;;;;6146768;23;20044;-81
2022/10/17 14:57:42;;;;;;;10.60;3.30;;;;;;;;;;6154129;23;20061;-79
2022/10/17 15:00:28;;;;;;;14.10;3.72;;;;;;;;;;6147180;23;20009;-78
2022/10/17 15:03:13;;;;;;;14.90;3.53;;;;;;;;;;6147106;23;20010;-85
2022/10/17 15:06:08;;;;;;;11.40;3.20;;;;;;;;;;6146925;23;20006;-69
2022/10/17 15:08:53;;;;;;;11.27;2.83;;;;;;;;;;6146711;23;20096;-70
2022/10/17 15:11:38;;;;;;;11.93;2.65;;;;;;;;;;6146371;23;20063;-70
2022/10/17 15:14:23;;;;;;;16.00;2.85;;;;;;;;;;6146366;23;20010;-70
2022/10/17 15:17:13;;;;;;;8.05;2.33;;;;;;;;;;6146618;23;20036;-70
2022/10/17 15:19:59;;;;;;;9.70;2.92;;;;;;;;;;6146440;23;19997;-69
2022/10/17 15:22:44;;;;;;;13.63;3.55;;;;;;;;;;6146525;23;20160;-70
2022/10/17 15:25:30;;;;;;;13.95;3.00;;;;;;;;;;6152447;23;20053;-83
2022/10/17 15:28:15;;;;;;;8.30;3.25;;;;;;;;;;6170048;23;20008;-83
2022/10/17 15:31:00;;;;;;;16.27;4.28;;;;;;;;;;6165775;23;20005;-81
2022/10/17 15:33:46;;;;;;;23.15;3.47;;;;;;;;;;6163776;23;20077;-83
2022/10/17 15:36:34;;;;;;;15.02;3.08;;;;;;;;;;6171956;23;20008;-84
2022/10/17 15:39:19;;;;;;;17.73;3.28;;;;;;;;;;6151201;23;20009;-84
2022/10/17 15:42:08;;;;;;;15.15;2.85;;;;;;;;;;6146916;23;20002;-69
2022/10/17 15:44:53;;;;;;;14.45;3.13;;;;;;;;;;6146572;23;20002;-69
2022/10/17 15:47:39;;;;;;;10.45;2.78;;;;;;;;;;6146395;23;20099;-71
2022/10/17 15:50:27;;;;;;;12.18;2.92;;;;;;;;;;6125732;23;20015;-71
2022/10/17 15:53:13;;;;;;;12.10;2.67;;;;;;;;;;6145932;23;20005;-69
2022/10/17 15:55:58;;;;;;;11.63;2.85;;;;;;;;;;6125137;23;20043;-69
2022/10/17 15:58:44;;;;;;;17.73;5.10;;;;;;;;;;6126137;23;20035;-67
2022/10/17 16:01:30;;;;;;;14.95;3.42;;;;;;;;;;6152907;23;20087;-70
2022/10/17 16:04:16;;;;;;;14.90;3.55;;;;;;;;;;6145940;23;20048;-70
2022/10/17 16:07:01;;;;;;;18.58;3.80;;;;;;;;;;6145820;23;20333;-70
2022/10/17 16:09:46;;;;;;;15.15;3.00;;;;;;;;;;6146067;23;20005;-70
2022/10/17 16:12:40;;;;;;;13.80;2.85;;;;;;;;;;6145758;23;20010;-71
2022/10/17 16:15:26;;;;;;;14.07;3.78;;;;;;;;;;6145557;23;20013;-70
2022/10/17 16:18:12;;;;;;;6.38;2.78;;;;;;;;;;6125392;23;20041;-69
2022/10/17 16:20:57;;;;;;;10.80;3.63;;;;;;;;;;6146226;23;20017;-72
2022/10/17 16:23:42;;;;;;;12.65;3.42;;;;;;;;;;6145793;23;20005;-72
2022/10/17 16:26:28;;;;;;;13.70;3.10;;;;;;;;;;6145317;23;20009;-71
2022/10/17 16:29:13;;;;;;;17.00;3.60;;;;;;;;;;6146206;23;20017;-71
2022/10/17 16:31:58;;;;;;;12.00;3.42;;;;;;;;;;6148421;23;20100;-70
2022/10/17 16:34:43;;;;;;;14.10;3.80;;;;;;;;;;6149083;23;20021;-71
2022/10/17 16:37:29;;;;;;;14.20;3.47;;;;;;;;;;6145933;23;20002;-79
2022/10/17 16:40:14;;;;;;;11.60;3.08;;;;;;;;;;6125743;23;20090;-79